sensor_id;sensor_type;location;lat;lon;timestamp;temperature;humidity
14771;DHT22;7477;45.222;5.688;2023-06-10T00:02:31;19.70;99.90
14771;DHT22;7477;45.222;5.688;2023-06-10T00:05:50;19.70;99.90
14771;DHT22;7477;45.222;5.688;2023-06-10T00:09:10;19.60;99.90
14771;DHT22;7477;45.222;5.688;2023-06-10T00:12:29;19.60;99.90
14771;DHT22;7477;45.222;5.688;2023-06-10T00:15:50;19.70;99.90
14771;DHT22;7477;45.222;5.688;2023-06-10T00:19:09;19.60;99.90
14771;DHT22;7477;45.222;5.688;2023-06-10T00:22:29;19.60;99.90
14771;DHT22;7477;45.222;5.688;2023-06-10T00:25:49;19.60;99.90
14771;DHT22;7477;45.222;5.688;2023-06-10T00:29:08;19.50;99.90
14771;DHT22;7477;45.222;5.688;2023-06-10T00:32:27;19.50;99.90
14771;DHT22;7477;45.222;5.688;2023-06-10T00:35:47;19.60;99.90
14771;DHT22;7477;45.222;5.688;2023-06-10T00:39:06;19.50;99.90
14771;DHT22;7477;45.222;5.688;2023-06-10T00:42:26;19.60;99.90
14771;DHT22;7477;45.222;5.688;2023-06-10T00:45:45;19.40;99.90
14771;DHT22;7477;45.222;5.688;2023-06-10T00:49:04;19.30;99.90
14771;DHT22;7477;45.222;5.688;2023-06-10T00:52:27;19.30;99.90
14771;DHT22;7477;45.222;5.688;2023-06-10T00:55:47;19.40;99.90
14771;DHT22;7477;45.222;5.688;2023-06-10T00:59:06;19.40;99.90
14771;DHT22;7477;45.222;5.688;2023-06-10T01:02:27;19.40;99.90
14771;DHT22;7477;45.222;5.688;2023-06-10T01:05:59;19.40;99.90
14771;DHT22;7477;45.222;5.688;2023-06-10T01:10:24;19.40;99.90
14771;DHT22;7477;45.222;5.688;2023-06-10T01:13:23;19.40;99.90
14771;DHT22;7477;45.222;5.688;2023-06-10T01:16:47;19.40;99.90
14771;DHT22;7477;45.222;5.688;2023-06-10T01:20:08;19.40;99.90
14771;DHT22;7477;45.222;5.688;2023-06-10T01:23:30;19.40;99.90
14771;DHT22;7477;45.222;5.688;2023-06-10T01:26:51;19.40;99.90
14771;DHT22;7477;45.222;5.688;2023-06-10T01:30:18;19.30;99.90
14771;DHT22;7477;45.222;5.688;2023-06-10T01:33:45;19.40;99.90
14771;DHT22;7477;45.222;5.688;2023-06-10T01:37:06;19.40;99.90
14771;DHT22;7477;45.222;5.688;2023-06-10T01:40:29;19.30;99.90
14771;DHT22;7477;45.222;5.688;2023-06-10T01:43:49;19.30;99.90
14771;DHT22;7477;45.222;5.688;2023-06-10T01:47:08;19.40;99.90
14771;DHT22;7477;45.222;5.688;2023-06-10T01:50:28;19.30;99.90
14771;DHT22;7477;45.222;5.688;2023-06-10T01:53:47;19.30;99.90
14771;DHT22;7477;45.222;5.688;2023-06-10T01:57:06;19.30;99.90
14771;DHT22;7477;45.222;5.688;2023-06-10T02:00:26;19.30;99.90
14771;DHT22;7477;45.222;5.688;2023-06-10T02:03:45;19.30;99.90
14771;DHT22;7477;45.222;5.688;2023-06-10T02:07:04;19.30;99.90
14771;DHT22;7477;45.222;5.688;2023-06-10T02:10:24;19.30;99.90
14771;DHT22;7477;45.222;5.688;2023-06-10T02:13:44;19.20;99.90
14771;DHT22;7477;45.222;5.688;2023-06-10T02:17:04;19.20;99.90
14771;DHT22;7477;45.222;5.688;2023-06-10T02:20:23;19.10;99.90
14771;DHT22;7477;45.222;5.688;2023-06-10T02:23:42;19.10;99.90
14771;DHT22;7477;45.222;5.688;2023-06-10T02:27:03;19.10;99.90
14771;DHT22;7477;45.222;5.688;2023-06-10T02:30:23;19.00;99.90
14771;DHT22;7477;45.222;5.688;2023-06-10T02:33:42;19.00;99.90
14771;DHT22;7477;45.222;5.688;2023-06-10T02:37:01;19.00;99.90
14771;DHT22;7477;45.222;5.688;2023-06-10T02:40:21;19.00;99.90
14771;DHT22;7477;45.222;5.688;2023-06-10T02:43:41;19.00;99.90
14771;DHT22;7477;45.222;5.688;2023-06-10T02:47:00;19.00;99.90
14771;DHT22;7477;45.222;5.688;2023-06-10T02:50:20;18.90;99.90
14771;DHT22;7477;45.222;5.688;2023-06-10T02:53:39;18.90;99.90
14771;DHT22;7477;45.222;5.688;2023-06-10T02:56:58;18.90;99.90
14771;DHT22;7477;45.222;5.688;2023-06-10T03:00:17;18.90;99.90
14771;DHT22;7477;45.222;5.688;2023-06-10T03:03:39;18.90;99.90
14771;DHT22;7477;45.222;5.688;2023-06-10T03:07:01;18.80;99.90
14771;DHT22;7477;45.222;5.688;2023-06-10T03:10:22;18.80;99.90
14771;DHT22;7477;45.222;5.688;2023-06-10T03:13:41;18.70;99.90
14771;DHT22;7477;45.222;5.688;2023-06-10T03:17:00;19.80;99.90
14771;DHT22;7477;45.222;5.688;2023-06-10T03:20:19;18.70;99.90
14771;DHT22;7477;45.222;5.688;2023-06-10T03:23:40;18.70;99.90
14771;DHT22;7477;45.222;5.688;2023-06-10T03:26:59;18.70;99.90
14771;DHT22;7477;45.222;5.688;2023-06-10T03:30:19;18.60;99.90
14771;DHT22;7477;45.222;5.688;2023-06-10T03:33:39;18.60;99.90
14771;DHT22;7477;45.222;5.688;2023-06-10T03:36:58;18.60;99.90
14771;DHT22;7477;45.222;5.688;2023-06-10T03:40:17;18.60;99.90
14771;DHT22;7477;45.222;5.688;2023-06-10T03:43:37;18.60;99.90
14771;DHT22;7477;45.222;5.688;2023-06-10T03:46:59;18.60;99.90
14771;DHT22;7477;45.222;5.688;2023-06-10T03:50:19;18.60;99.90
14771;DHT22;7477;45.222;5.688;2023-06-10T03:53:38;18.70;99.90
14771;DHT22;7477;45.222;5.688;2023-06-10T03:56:58;18.70;99.90
14771;DHT22;7477;45.222;5.688;2023-06-10T04:00:17;18.70;99.90
14771;DHT22;7477;45.222;5.688;2023-06-10T04:03:38;18.70;99.90
14771;DHT22;7477;45.222;5.688;2023-06-10T04:06:58;18.70;99.90
14771;DHT22;7477;45.222;5.688;2023-06-10T04:10:17;18.60;99.90
14771;DHT22;7477;45.222;5.688;2023-06-10T04:13:36;18.60;99.90
14771;DHT22;7477;45.222;5.688;2023-06-10T04:16:56;18.70;99.90
14771;DHT22;7477;45.222;5.688;2023-06-10T04:20:15;18.70;99.90
14771;DHT22;7477;45.222;5.688;2023-06-10T04:23:35;18.70;99.90
14771;DHT22;7477;45.222;5.688;2023-06-10T04:26:56;18.60;99.90
14771;DHT22;7477;45.222;5.688;2023-06-10T04:30:16;18.60;99.90
14771;DHT22;7477;45.222;5.688;2023-06-10T04:33:35;18.60;99.90
14771;DHT22;7477;45.222;5.688;2023-06-10T04:36:55;18.60;99.90
14771;DHT22;7477;45.222;5.688;2023-06-10T04:40:14;18.60;99.90
14771;DHT22;7477;45.222;5.688;2023-06-10T04:43:34;18.60;99.90
14771;DHT22;7477;45.222;5.688;2023-06-10T04:46:54;18.60;99.90
14771;DHT22;7477;45.222;5.688;2023-06-10T04:50:14;18.70;99.90
14771;DHT22;7477;45.222;5.688;2023-06-10T04:53:34;18.70;99.90
14771;DHT22;7477;45.222;5.688;2023-06-10T04:56:54;18.70;99.90
14771;DHT22;7477;45.222;5.688;2023-06-10T05:00:13;18.80;99.90
14771;DHT22;7477;45.222;5.688;2023-06-10T05:03:33;18.90;99.90
14771;DHT22;7477;45.222;5.688;2023-06-10T05:06:52;19.00;99.90
14771;DHT22;7477;45.222;5.688;2023-06-10T05:10:12;19.00;99.90
14771;DHT22;7477;45.222;5.688;2023-06-10T05:13:31;19.00;99.90
14771;DHT22;7477;45.222;5.688;2023-06-10T05:16:50;18.90;99.90
14771;DHT22;7477;45.222;5.688;2023-06-10T05:20:10;18.80;99.90
14771;DHT22;7477;45.222;5.688;2023-06-10T05:23:29;18.80;99.90
14771;DHT22;7477;45.222;5.688;2023-06-10T05:26:48;18.80;99.90
14771;DHT22;7477;45.222;5.688;2023-06-10T05:30:09;18.80;99.90
14771;DHT22;7477;45.222;5.688;2023-06-10T05:33:29;18.90;99.90
14771;DHT22;7477;45.222;5.688;2023-06-10T05:36:48;18.90;99.90
14771;DHT22;7477;45.222;5.688;2023-06-10T05:40:08;19.00;99.90
14771;DHT22;7477;45.222;5.688;2023-06-10T05:43:27;19.00;99.90
14771;DHT22;7477;45.222;5.688;2023-06-10T05:46:47;19.10;99.90
14771;DHT22;7477;45.222;5.688;2023-06-10T05:50:06;19.20;99.90
14771;DHT22;7477;45.222;5.688;2023-06-10T05:53:28;19.20;99.90
14771;DHT22;7477;45.222;5.688;2023-06-10T05:56:47;19.30;99.90
14771;DHT22;7477;45.222;5.688;2023-06-10T06:00:07;19.30;99.90
14771;DHT22;7477;45.222;5.688;2023-06-10T06:03:26;19.30;99.90
14771;DHT22;7477;45.222;5.688;2023-06-10T06:06:47;19.40;99.90
14771;DHT22;7477;45.222;5.688;2023-06-10T06:10:07;19.70;99.90
14771;DHT22;7477;45.222;5.688;2023-06-10T06:13:26;19.60;99.90
14771;DHT22;7477;45.222;5.688;2023-06-10T06:16:45;19.60;99.90
14771;DHT22;7477;45.222;5.688;2023-06-10T06:20:04;19.60;99.90
14771;DHT22;7477;45.222;5.688;2023-06-10T06:23:24;19.60;99.90
14771;DHT22;7477;45.222;5.688;2023-06-10T06:26:43;19.60;99.90
14771;DHT22;7477;45.222;5.688;2023-06-10T06:30:03;19.60;99.90
14771;DHT22;7477;45.222;5.688;2023-06-10T06:33:23;19.60;99.90
14771;DHT22;7477;45.222;5.688;2023-06-10T06:36:42;19.70;99.90
14771;DHT22;7477;45.222;5.688;2023-06-10T06:40:02;19.70;99.90
14771;DHT22;7477;45.222;5.688;2023-06-10T06:43:22;19.80;99.90
14771;DHT22;7477;45.222;5.688;2023-06-10T06:46:41;19.80;99.90
14771;DHT22;7477;45.222;5.688;2023-06-10T06:50:00;19.80;99.90
14771;DHT22;7477;45.222;5.688;2023-06-10T06:53:21;19.90;99.90
14771;DHT22;7477;45.222;5.688;2023-06-10T06:56:40;19.90;99.90
14771;DHT22;7477;45.222;5.688;2023-06-10T07:00:00;19.90;99.90
14771;DHT22;7477;45.222;5.688;2023-06-10T07:03:19;20.00;99.90
14771;DHT22;7477;45.222;5.688;2023-06-10T07:06:38;20.00;99.90
14771;DHT22;7477;45.222;5.688;2023-06-10T07:09:57;19.90;99.90
14771;DHT22;7477;45.222;5.688;2023-06-10T07:13:17;19.90;99.90
14771;DHT22;7477;45.222;5.688;2023-06-10T07:16:36;19.90;99.90
14771;DHT22;7477;45.222;5.688;2023-06-10T07:19:55;20.00;99.90
14771;DHT22;7477;45.222;5.688;2023-06-10T07:23:16;20.00;99.90
14771;DHT22;7477;45.222;5.688;2023-06-10T07:26:36;20.10;99.90
14771;DHT22;7477;45.222;5.688;2023-06-10T07:29:55;20.10;99.90
14771;DHT22;7477;45.222;5.688;2023-06-10T07:33:14;20.20;99.90
14771;DHT22;7477;45.222;5.688;2023-06-10T07:36:33;20.20;99.90
14771;DHT22;7477;45.222;5.688;2023-06-10T07:39:53;20.30;99.90
14771;DHT22;7477;45.222;5.688;2023-06-10T07:43:12;20.30;99.90
14771;DHT22;7477;45.222;5.688;2023-06-10T07:46:32;20.40;99.90
14771;DHT22;7477;45.222;5.688;2023-06-10T07:49:52;20.30;99.90
14771;DHT22;7477;45.222;5.688;2023-06-10T07:53:11;20.40;99.90
14771;DHT22;7477;45.222;5.688;2023-06-10T07:56:30;20.40;99.90
14771;DHT22;7477;45.222;5.688;2023-06-10T07:59:49;20.50;99.90
14771;DHT22;7477;45.222;5.688;2023-06-10T08:03:09;20.40;99.90
14771;DHT22;7477;45.222;5.688;2023-06-10T08:06:29;20.40;99.90
14771;DHT22;7477;45.222;5.688;2023-06-10T08:09:48;20.40;99.90
14771;DHT22;7477;45.222;5.688;2023-06-10T08:13:08;20.40;99.90
14771;DHT22;7477;45.222;5.688;2023-06-10T08:16:27;20.50;99.90
14771;DHT22;7477;45.222;5.688;2023-06-10T08:19:46;20.50;99.90
14771;DHT22;7477;45.222;5.688;2023-06-10T08:23:06;20.50;99.90
14771;DHT22;7477;45.222;5.688;2023-06-10T08:26:25;20.50;99.90
14771;DHT22;7477;45.222;5.688;2023-06-10T08:29:44;20.50;99.90
14771;DHT22;7477;45.222;5.688;2023-06-10T08:33:04;20.50;99.90
14771;DHT22;7477;45.222;5.688;2023-06-10T08:36:23;20.50;99.90
14771;DHT22;7477;45.222;5.688;2023-06-10T08:39:42;20.60;99.90
14771;DHT22;7477;45.222;5.688;2023-06-10T08:43:06;20.60;99.90
14771;DHT22;7477;45.222;5.688;2023-06-10T08:46:28;20.60;99.90
14771;DHT22;7477;45.222;5.688;2023-06-10T08:49:49;20.70;99.90
14771;DHT22;7477;45.222;5.688;2023-06-10T08:53:14;20.70;99.90
14771;DHT22;7477;45.222;5.688;2023-06-10T08:56:39;20.70;99.90
14771;DHT22;7477;45.222;5.688;2023-06-10T08:59:59;20.80;99.90
14771;DHT22;7477;45.222;5.688;2023-06-10T09:03:19;20.80;99.90
14771;DHT22;7477;45.222;5.688;2023-06-10T09:06:40;20.80;99.90
14771;DHT22;7477;45.222;5.688;2023-06-10T09:10:01;20.80;99.90
14771;DHT22;7477;45.222;5.688;2023-06-10T09:13:22;20.80;99.90
14771;DHT22;7477;45.222;5.688;2023-06-10T09:16:42;20.90;99.90
14771;DHT22;7477;45.222;5.688;2023-06-10T09:20:01;20.90;99.90
14771;DHT22;7477;45.222;5.688;2023-06-10T09:23:22;21.00;99.90
14771;DHT22;7477;45.222;5.688;2023-06-10T09:26:43;21.00;99.90
14771;DHT22;7477;45.222;5.688;2023-06-10T09:30:02;20.90;99.90
14771;DHT22;7477;45.222;5.688;2023-06-10T09:33:26;21.00;99.90
14771;DHT22;7477;45.222;5.688;2023-06-10T09:36:45;21.00;99.90
14771;DHT22;7477;45.222;5.688;2023-06-10T09:40:06;21.10;99.90
14771;DHT22;7477;45.222;5.688;2023-06-10T09:43:40;21.10;99.90
14771;DHT22;7477;45.222;5.688;2023-06-10T09:47:00;21.10;99.90
14771;DHT22;7477;45.222;5.688;2023-06-10T09:50:20;21.30;99.90
14771;DHT22;7477;45.222;5.688;2023-06-10T09:53:39;21.20;99.90
14771;DHT22;7477;45.222;5.688;2023-06-10T09:56:59;21.20;99.90
14771;DHT22;7477;45.222;5.688;2023-06-10T10:00:25;21.20;99.90
14771;DHT22;7477;45.222;5.688;2023-06-10T10:03:50;21.20;99.90
14771;DHT22;7477;45.222;5.688;2023-06-10T10:07:11;21.10;99.90
14771;DHT22;7477;45.222;5.688;2023-06-10T10:10:30;21.10;99.90
14771;DHT22;7477;45.222;5.688;2023-06-10T10:13:51;21.30;99.90
14771;DHT22;7477;45.222;5.688;2023-06-10T10:17:11;21.40;99.90
14771;DHT22;7477;45.222;5.688;2023-06-10T10:20:33;21.50;99.90
14771;DHT22;7477;45.222;5.688;2023-06-10T10:24:05;21.50;99.90
14771;DHT22;7477;45.222;5.688;2023-06-10T10:27:28;21.60;99.90
14771;DHT22;7477;45.222;5.688;2023-06-10T10:30:53;21.60;99.90
14771;DHT22;7477;45.222;5.688;2023-06-10T10:34:23;21.60;99.90
14771;DHT22;7477;45.222;5.688;2023-06-10T10:37:45;21.70;99.90
14771;DHT22;7477;45.222;5.688;2023-06-10T10:41:06;21.70;99.90
14771;DHT22;7477;45.222;5.688;2023-06-10T10:44:26;21.70;99.90
14771;DHT22;7477;45.222;5.688;2023-06-10T10:47:46;21.80;99.90
14771;DHT22;7477;45.222;5.688;2023-06-10T10:51:05;21.70;99.90
14771;DHT22;7477;45.222;5.688;2023-06-10T10:54:32;21.80;99.90
14771;DHT22;7477;45.222;5.688;2023-06-10T10:57:57;21.80;99.90
14771;DHT22;7477;45.222;5.688;2023-06-10T11:01:17;21.90;99.90
14771;DHT22;7477;45.222;5.688;2023-06-10T11:04:36;21.90;99.90
14771;DHT22;7477;45.222;5.688;2023-06-10T11:07:55;21.90;99.90
14771;DHT22;7477;45.222;5.688;2023-06-10T11:14:54;21.90;99.90
14771;DHT22;7477;45.222;5.688;2023-06-10T11:22:06;22.00;99.90
14771;DHT22;7477;45.222;5.688;2023-06-10T11:25:38;22.00;99.90
14771;DHT22;7477;45.222;5.688;2023-06-10T11:32:18;22.00;99.90
14771;DHT22;7477;45.222;5.688;2023-06-10T11:35:37;22.10;99.90
14771;DHT22;7477;45.222;5.688;2023-06-10T11:39:02;22.10;99.90
14771;DHT22;7477;45.222;5.688;2023-06-10T11:42:22;22.10;99.90
14771;DHT22;7477;45.222;5.688;2023-06-10T11:45:42;22.10;99.90
14771;DHT22;7477;45.222;5.688;2023-06-10T11:49:02;22.10;99.90
14771;DHT22;7477;45.222;5.688;2023-06-10T11:52:30;22.20;99.90
14771;DHT22;7477;45.222;5.688;2023-06-10T11:55:56;22.20;99.90
14771;DHT22;7477;45.222;5.688;2023-06-10T11:59:16;22.20;99.90
14771;DHT22;7477;45.222;5.688;2023-06-10T12:02:35;22.20;99.90
14771;DHT22;7477;45.222;5.688;2023-06-10T12:06:03;22.30;99.90
14771;DHT22;7477;45.222;5.688;2023-06-10T12:09:24;22.30;99.90
14771;DHT22;7477;45.222;5.688;2023-06-10T12:12:44;22.30;99.90
14771;DHT22;7477;45.222;5.688;2023-06-10T12:16:10;22.30;99.90
14771;DHT22;7477;45.222;5.688;2023-06-10T12:19:29;22.40;99.90
14771;DHT22;7477;45.222;5.688;2023-06-10T12:22:48;22.40;99.90
14771;DHT22;7477;45.222;5.688;2023-06-10T12:26:07;22.40;99.90
14771;DHT22;7477;45.222;5.688;2023-06-10T12:29:26;22.40;99.90
14771;DHT22;7477;45.222;5.688;2023-06-10T12:32:51;22.50;99.90
14771;DHT22;7477;45.222;5.688;2023-06-10T12:36:16;22.50;99.90
14771;DHT22;7477;45.222;5.688;2023-06-10T12:39:36;22.50;99.90
14771;DHT22;7477;45.222;5.688;2023-06-10T12:42:56;22.50;99.90
14771;DHT22;7477;45.222;5.688;2023-06-10T12:46:15;22.60;99.90
14771;DHT22;7477;45.222;5.688;2023-06-10T12:49:34;23.70;99.90
14771;DHT22;7477;45.222;5.688;2023-06-10T12:52:54;24.20;99.90
14771;DHT22;7477;45.222;5.688;2023-06-10T12:56:13;24.60;99.90
14771;DHT22;7477;45.222;5.688;2023-06-10T12:59:33;25.00;99.00
14771;DHT22;7477;45.222;5.688;2023-06-10T13:02:52;25.00;98.60
14771;DHT22;7477;45.222;5.688;2023-06-10T13:06:12;25.10;98.00
14771;DHT22;7477;45.222;5.688;2023-06-10T13:09:31;25.10;99.00
14771;DHT22;7477;45.222;5.688;2023-06-10T13:12:52;25.30;97.50
14771;DHT22;7477;45.222;5.688;2023-06-10T13:16:11;25.30;98.00
14771;DHT22;7477;45.222;5.688;2023-06-10T13:19:31;25.30;97.50
14771;DHT22;7477;45.222;5.688;2023-06-10T13:22:51;25.40;98.60
14771;DHT22;7477;45.222;5.688;2023-06-10T13:26:10;25.60;98.60
14771;DHT22;7477;45.222;5.688;2023-06-10T13:29:29;25.70;98.40
14771;DHT22;7477;45.222;5.688;2023-06-10T13:32:49;25.60;98.70
14771;DHT22;7477;45.222;5.688;2023-06-10T13:36:09;25.70;98.90
14771;DHT22;7477;45.222;5.688;2023-06-10T13:39:28;25.70;97.60
14771;DHT22;7477;45.222;5.688;2023-06-10T13:42:47;25.80;98.90
14771;DHT22;7477;45.222;5.688;2023-06-10T13:46:09;26.00;97.50
14771;DHT22;7477;45.222;5.688;2023-06-10T13:49:29;26.10;97.10
14771;DHT22;7477;45.222;5.688;2023-06-10T13:52:49;26.30;98.10
14771;DHT22;7477;45.222;5.688;2023-06-10T13:56:08;26.50;97.30
14771;DHT22;7477;45.222;5.688;2023-06-10T13:59:27;26.60;98.30
14771;DHT22;7477;45.222;5.688;2023-06-10T14:02:46;26.70;97.60
14771;DHT22;7477;45.222;5.688;2023-06-10T14:06:05;26.70;97.40
14771;DHT22;7477;45.222;5.688;2023-06-10T14:09:25;26.90;96.60
14771;DHT22;7477;45.222;5.688;2023-06-10T14:12:44;26.80;97.50
14771;DHT22;7477;45.222;5.688;2023-06-10T14:16:03;27.10;96.30
14771;DHT22;7477;45.222;5.688;2023-06-10T14:19:23;26.90;97.00
14771;DHT22;7477;45.222;5.688;2023-06-10T14:22:42;27.10;96.40
14771;DHT22;7477;45.222;5.688;2023-06-10T14:26:01;27.20;96.40
14771;DHT22;7477;45.222;5.688;2023-06-10T14:29:21;27.10;96.90
14771;DHT22;7477;45.222;5.688;2023-06-10T14:32:41;27.20;96.20
14771;DHT22;7477;45.222;5.688;2023-06-10T14:36:00;27.40;96.20
14771;DHT22;7477;45.222;5.688;2023-06-10T14:39:20;27.60;95.60
14771;DHT22;7477;45.222;5.688;2023-06-10T14:42:39;27.70;95.70
14771;DHT22;7477;45.222;5.688;2023-06-10T14:45:58;27.80;95.20
14771;DHT22;7477;45.222;5.688;2023-06-10T14:49:17;27.70;94.40
14771;DHT22;7477;45.222;5.688;2023-06-10T14:52:36;27.70;94.90
14771;DHT22;7477;45.222;5.688;2023-06-10T14:55:55;27.90;94.90
14771;DHT22;7477;45.222;5.688;2023-06-10T14:59:14;27.80;95.50
14771;DHT22;7477;45.222;5.688;2023-06-10T15:02:34;27.80;95.60
14771;DHT22;7477;45.222;5.688;2023-06-10T15:05:54;28.00;95.10
14771;DHT22;7477;45.222;5.688;2023-06-10T15:09:13;28.00;95.60
14771;DHT22;7477;45.222;5.688;2023-06-10T15:12:33;28.00;94.70
14771;DHT22;7477;45.222;5.688;2023-06-10T15:15:53;28.00;94.90
14771;DHT22;7477;45.222;5.688;2023-06-10T15:19:12;28.10;94.70
14771;DHT22;7477;45.222;5.688;2023-06-10T15:22:31;28.10;95.00
14771;DHT22;7477;45.222;5.688;2023-06-10T15:25:51;28.30;94.70
14771;DHT22;7477;45.222;5.688;2023-06-10T15:29:10;28.30;95.00
14771;DHT22;7477;45.222;5.688;2023-06-10T15:32:30;28.40;94.60
14771;DHT22;7477;45.222;5.688;2023-06-10T15:35:49;28.60;93.80
14771;DHT22;7477;45.222;5.688;2023-06-10T15:39:09;28.50;94.50
14771;DHT22;7477;45.222;5.688;2023-06-10T15:42:28;28.70;93.80
14771;DHT22;7477;45.222;5.688;2023-06-10T15:45:47;28.70;93.60
14771;DHT22;7477;45.222;5.688;2023-06-10T15:49:06;28.90;93.30
14771;DHT22;7477;45.222;5.688;2023-06-10T15:52:25;28.90;92.90
14771;DHT22;7477;45.222;5.688;2023-06-10T15:55:44;28.60;92.60
14771;DHT22;7477;45.222;5.688;2023-06-10T15:59:04;28.30;93.30
14771;DHT22;7477;45.222;5.688;2023-06-10T16:02:23;28.40;92.90
14771;DHT22;7477;45.222;5.688;2023-06-10T16:05:42;28.30;93.20
14771;DHT22;7477;45.222;5.688;2023-06-10T16:09:01;28.20;93.20
14771;DHT22;7477;45.222;5.688;2023-06-10T16:12:21;28.10;93.30
14771;DHT22;7477;45.222;5.688;2023-06-10T16:15:40;27.90;93.90
14771;DHT22;7477;45.222;5.688;2023-06-10T16:18:59;27.80;94.00
14771;DHT22;7477;45.222;5.688;2023-06-10T16:22:19;27.70;93.90
14771;DHT22;7477;45.222;5.688;2023-06-10T16:25:38;27.50;93.80
14771;DHT22;7477;45.222;5.688;2023-06-10T16:28:57;27.20;94.00
14771;DHT22;7477;45.222;5.688;2023-06-10T16:32:17;27.10;94.00
14771;DHT22;7477;45.222;5.688;2023-06-10T16:35:36;27.00;94.40
14771;DHT22;7477;45.222;5.688;2023-06-10T16:38:55;27.10;94.60
14771;DHT22;7477;45.222;5.688;2023-06-10T16:42:16;27.20;94.50
14771;DHT22;7477;45.222;5.688;2023-06-10T16:45:35;27.10;94.10
14771;DHT22;7477;45.222;5.688;2023-06-10T16:48:54;27.00;94.50
14771;DHT22;7477;45.222;5.688;2023-06-10T16:52:14;26.90;94.60
14771;DHT22;7477;45.222;5.688;2023-06-10T16:55:33;26.80;94.30
14771;DHT22;7477;45.222;5.688;2023-06-10T16:58:52;26.70;94.50
14771;DHT22;7477;45.222;5.688;2023-06-10T17:02:11;26.70;94.70
14771;DHT22;7477;45.222;5.688;2023-06-10T17:05:31;26.50;94.40
14771;DHT22;7477;45.222;5.688;2023-06-10T17:08:50;26.40;94.50
14771;DHT22;7477;45.222;5.688;2023-06-10T17:12:10;26.30;94.70
14771;DHT22;7477;45.222;5.688;2023-06-10T17:15:30;26.30;95.00
14771;DHT22;7477;45.222;5.688;2023-06-10T17:18:49;26.20;95.00
14771;DHT22;7477;45.222;5.688;2023-06-10T17:22:08;26.20;95.50
14771;DHT22;7477;45.222;5.688;2023-06-10T17:25:27;26.20;95.10
14771;DHT22;7477;45.222;5.688;2023-06-10T17:28:47;26.10;95.30
14771;DHT22;7477;45.222;5.688;2023-06-10T17:32:06;26.00;95.30
14771;DHT22;7477;45.222;5.688;2023-06-10T17:35:26;26.00;95.90
14771;DHT22;7477;45.222;5.688;2023-06-10T17:38:45;25.80;96.10
14771;DHT22;7477;45.222;5.688;2023-06-10T17:42:04;25.80;96.40
14771;DHT22;7477;45.222;5.688;2023-06-10T17:45:24;25.80;96.40
14771;DHT22;7477;45.222;5.688;2023-06-10T17:48:43;25.90;96.70
14771;DHT22;7477;45.222;5.688;2023-06-10T17:52:03;25.90;97.10
14771;DHT22;7477;45.222;5.688;2023-06-10T17:55:22;25.80;97.50
14771;DHT22;7477;45.222;5.688;2023-06-10T17:58:41;25.80;98.10
14771;DHT22;7477;45.222;5.688;2023-06-10T18:02:01;25.60;98.60
14771;DHT22;7477;45.222;5.688;2023-06-10T18:05:20;25.50;99.20
14771;DHT22;7477;45.222;5.688;2023-06-10T18:08:40;25.30;99.70
14771;DHT22;7477;45.222;5.688;2023-06-10T18:11:59;25.30;99.80
14771;DHT22;7477;45.222;5.688;2023-06-10T18:15:18;25.40;99.70
14771;DHT22;7477;45.222;5.688;2023-06-10T18:18:37;25.40;99.80
14771;DHT22;7477;45.222;5.688;2023-06-10T18:21:57;25.40;99.70
14771;DHT22;7477;45.222;5.688;2023-06-10T18:25:16;25.30;99.40
14771;DHT22;7477;45.222;5.688;2023-06-10T18:28:35;25.30;99.50
14771;DHT22;7477;45.222;5.688;2023-06-10T18:31:54;25.20;99.50
14771;DHT22;7477;45.222;5.688;2023-06-10T18:35:13;25.10;99.90
14771;DHT22;7477;45.222;5.688;2023-06-10T18:38:33;25.00;99.90
14771;DHT22;7477;45.222;5.688;2023-06-10T18:41:52;25.00;99.90
14771;DHT22;7477;45.222;5.688;2023-06-10T18:45:12;24.70;99.90
14771;DHT22;7477;45.222;5.688;2023-06-10T18:48:31;24.70;99.90
14771;DHT22;7477;45.222;5.688;2023-06-10T18:51:50;24.50;99.90
14771;DHT22;7477;45.222;5.688;2023-06-10T18:55:10;24.60;99.90
14771;DHT22;7477;45.222;5.688;2023-06-10T18:58:32;24.50;99.90
14771;DHT22;7477;45.222;5.688;2023-06-10T19:01:51;24.60;99.90
14771;DHT22;7477;45.222;5.688;2023-06-10T19:05:10;24.40;99.90
14771;DHT22;7477;45.222;5.688;2023-06-10T19:08:33;24.40;99.90
14771;DHT22;7477;45.222;5.688;2023-06-10T19:11:52;24.30;99.90
14771;DHT22;7477;45.222;5.688;2023-06-10T19:15:11;24.20;99.90
14771;DHT22;7477;45.222;5.688;2023-06-10T19:18:30;24.20;99.90
14771;DHT22;7477;45.222;5.688;2023-06-10T19:21:49;24.10;99.90
14771;DHT22;7477;45.222;5.688;2023-06-10T19:25:09;24.10;99.90
14771;DHT22;7477;45.222;5.688;2023-06-10T19:28:28;23.80;99.90
14771;DHT22;7477;45.222;5.688;2023-06-10T19:31:48;23.90;99.90
14771;DHT22;7477;45.222;5.688;2023-06-10T19:35:07;24.40;99.90
14771;DHT22;7477;45.222;5.688;2023-06-10T19:38:27;24.10;99.90
14771;DHT22;7477;45.222;5.688;2023-06-10T19:41:47;23.90;99.90
14771;DHT22;7477;45.222;5.688;2023-06-10T19:45:06;23.80;99.90
14771;DHT22;7477;45.222;5.688;2023-06-10T19:48:26;23.60;99.90
14771;DHT22;7477;45.222;5.688;2023-06-10T19:51:45;23.60;99.90
14771;DHT22;7477;45.222;5.688;2023-06-10T19:55:07;23.60;99.90
14771;DHT22;7477;45.222;5.688;2023-06-10T19:58:26;23.60;99.90
14771;DHT22;7477;45.222;5.688;2023-06-10T20:01:45;23.30;99.90
14771;DHT22;7477;45.222;5.688;2023-06-10T20:05:05;23.40;99.90
14771;DHT22;7477;45.222;5.688;2023-06-10T20:08:24;23.30;99.90
14771;DHT22;7477;45.222;5.688;2023-06-10T20:11:44;23.30;99.90
14771;DHT22;7477;45.222;5.688;2023-06-10T20:15:04;23.60;99.90
14771;DHT22;7477;45.222;5.688;2023-06-10T20:18:23;23.50;99.90
14771;DHT22;7477;45.222;5.688;2023-06-10T20:21:42;23.70;99.90
14771;DHT22;7477;45.222;5.688;2023-06-10T20:25:01;23.60;99.90
14771;DHT22;7477;45.222;5.688;2023-06-10T20:28:20;23.70;99.90
14771;DHT22;7477;45.222;5.688;2023-06-10T20:31:39;23.70;99.90
14771;DHT22;7477;45.222;5.688;2023-06-10T20:35:01;23.80;99.90
14771;DHT22;7477;45.222;5.688;2023-06-10T20:38:20;23.70;99.90
14771;DHT22;7477;45.222;5.688;2023-06-10T20:41:39;23.60;99.90
14771;DHT22;7477;45.222;5.688;2023-06-10T20:44:58;23.60;99.90
14771;DHT22;7477;45.222;5.688;2023-06-10T20:48:19;23.60;99.90
14771;DHT22;7477;45.222;5.688;2023-06-10T20:51:38;23.50;99.90
14771;DHT22;7477;45.222;5.688;2023-06-10T20:54:57;23.60;99.90
14771;DHT22;7477;45.222;5.688;2023-06-10T20:58:16;23.50;99.90
14771;DHT22;7477;45.222;5.688;2023-06-10T21:01:36;23.50;99.90
14771;DHT22;7477;45.222;5.688;2023-06-10T21:04:56;23.60;99.90
14771;DHT22;7477;45.222;5.688;2023-06-10T21:08:18;23.60;99.90
14771;DHT22;7477;45.222;5.688;2023-06-10T21:11:37;23.60;99.90
14771;DHT22;7477;45.222;5.688;2023-06-10T21:14:57;23.50;99.90
14771;DHT22;7477;45.222;5.688;2023-06-10T21:18:16;23.40;99.90
14771;DHT22;7477;45.222;5.688;2023-06-10T21:21:36;23.50;99.90
14771;DHT22;7477;45.222;5.688;2023-06-10T21:24:56;23.30;99.90
14771;DHT22;7477;45.222;5.688;2023-06-10T21:28:16;23.20;99.90
14771;DHT22;7477;45.222;5.688;2023-06-10T21:31:36;23.20;99.90
14771;DHT22;7477;45.222;5.688;2023-06-10T21:34:56;23.10;99.90